PWSweather.com
Personal Weather Stations
Station Observations
CANDIOTINO
Barrio Candioti Norte, Santa FeAR 3000

Barrio Candioti NorteSanta FeAR 3000

Lat: -31.632778, Lon: -60.695556

Elevation: 69

Station Type: WH-1081

http://www.eltiempoensantafe.com.ar

High Low Average
Temperature 83.3°F28.5°C 66.6°F19.2°C 73.0°F22.8°C
Dew Point 68.1°F20.1°C 60.6°F15.9°C 64.8°F18.2°C
Winds 9.2 mph 14.8 kmh Calm Calm 5.0 mph SSE8.0 kmh SSE
Wind Gusts 14.5 mph23.3 kmh 2.2 mph3.5 kmh 9.0 mph14.5 kmh
Humidity 89% 59% 76%
Pressure 29.79 in1008.8 mb 29.67 in1004.7 mb -
Precipitation 0.01 in0.3 mm - -
Hour Temp Dew Point Humidity Winds Wind Gusts Pressure Precip Precip Rate Daily Precip Total
12:00 AM 70.2°F21.2°C 65.8°F18.8°C 86% 5.4 mph SSE8.7 kmh SSE 8.3 mph13.4 kmh 29.75 in1007.5 mb 0.00 in0.0 mm 0.00 in0.0 mm 0.00 in0.0 mm
12:15 AM 70.0°F21.1°C 66.0°F18.9°C 87% 4.5 mph SE7.2 kmh SE 9.8 mph15.8 kmh 29.75 in1007.5 mb 0.00 in0.0 mm 0.00 in0.0 mm 0.00 in0.0 mm
12:30 AM 70.0°F21.1°C 66.0°F18.9°C 87% 3.1 mph SSE5.0 kmh SSE 9.2 mph14.8 kmh 29.76 in1007.8 mb 0.01 in0.3 mm 0.04 in1.0 mm 0.01 in0.3 mm
12:45 AM 69.6°F20.9°C 65.9°F18.8°C 88% 4.5 mph SE7.2 kmh SE 8.3 mph13.4 kmh 29.75 in1007.5 mb 0.01 in0.3 mm 0.00 in0.0 mm 0.01 in0.3 mm
01:00 AM 69.6°F20.9°C 65.9°F18.8°C 88% 4.5 mph SSE7.2 kmh SSE 9.2 mph14.8 kmh 29.77 in1008.1 mb 0.01 in0.3 mm 0.00 in0.0 mm 0.01 in0.3 mm
01:15 AM 69.4°F20.8°C 65.8°F18.8°C 88% 4.5 mph SSE7.2 kmh SSE 9.2 mph14.8 kmh 29.77 in1008.1 mb 0.01 in0.3 mm 0.00 in0.0 mm 0.01 in0.3 mm
01:30 AM 69.4°F20.8°C 65.8°F18.8°C 88% 2.2 mph S3.5 kmh S 6.0 mph9.7 kmh 29.77 in1008.1 mb 0.00 in0.0 mm 0.00 in0.0 mm 0.01 in0.3 mm
01:45 AM 69.3°F20.7°C 65.6°F18.7°C 88% 4.5 mph S7.2 kmh S 9.8 mph15.8 kmh 29.77 in1008.1 mb 0.00 in0.0 mm 0.00 in0.0 mm 0.01 in0.3 mm
02:00 AM 69.3°F20.7°C 65.6°F18.7°C 88% 5.4 mph S8.7 kmh S 9.2 mph14.8 kmh 29.75 in1007.5 mb 0.00 in0.0 mm 0.00 in0.0 mm 0.01 in0.3 mm
02:15 AM 69.1°F20.6°C 65.4°F18.6°C 88% 3.8 mph S6.1 kmh S 9.8 mph15.8 kmh 29.75 in1007.5 mb 0.00 in0.0 mm 0.00 in0.0 mm 0.01 in0.3 mm
02:30 AM 69.1°F20.6°C 65.4°F18.6°C 88% 4.5 mph S7.2 kmh S 8.3 mph13.4 kmh 29.74 in1007.1 mb 0.00 in0.0 mm 0.00 in0.0 mm 0.01 in0.3 mm
02:45 AM 68.9°F20.5°C 65.2°F18.4°C 88% 3.8 mph SSE6.1 kmh SSE 7.6 mph12.2 kmh 29.73 in1006.8 mb 0.00 in0.0 mm 0.00 in0.0 mm 0.01 in0.3 mm
03:00 AM 68.5°F20.3°C 65.2°F18.4°C 89% 5.4 mph S8.7 kmh S 9.8 mph15.8 kmh 29.73 in1006.8 mb 0.00 in0.0 mm 0.00 in0.0 mm 0.01 in0.3 mm
03:15 AM 68.2°F20.1°C 64.5°F18.1°C 88% 3.8 mph S6.1 kmh S 8.3 mph13.4 kmh 29.74 in1007.1 mb 0.00 in0.0 mm 0.00 in0.0 mm 0.01 in0.3 mm
03:30 AM 68.4°F20.2°C 64.4°F18.0°C 87% 5.4 mph SSW8.7 kmh SSW 8.3 mph13.4 kmh 29.73 in1006.8 mb 0.00 in0.0 mm 0.00 in0.0 mm 0.01 in0.3 mm
03:45 AM 68.0°F20.0°C 63.3°F17.4°C 85% 6.0 mph S9.7 kmh S 13.6 mph21.9 kmh 29.72 in1006.4 mb 0.00 in0.0 mm 0.00 in0.0 mm 0.01 in0.3 mm
04:00 AM 67.8°F19.9°C 63.2°F17.3°C 85% 4.5 mph S7.2 kmh S 13.6 mph21.9 kmh 29.71 in1006.1 mb 0.00 in0.0 mm 0.00 in0.0 mm 0.01 in0.3 mm
04:15 AM 67.5°F19.7°C 62.8°F17.1°C 85% 4.5 mph S7.2 kmh S 10.7 mph17.2 kmh 29.71 in1006.1 mb 0.00 in0.0 mm 0.00 in0.0 mm 0.01 in0.3 mm
04:30 AM 67.5°F19.7°C 62.8°F17.1°C 85% 6.9 mph SSE11.1 kmh SSE 10.7 mph17.2 kmh 29.71 in1006.1 mb 0.00 in0.0 mm 0.00 in0.0 mm 0.01 in0.3 mm
04:45 AM 67.3°F19.6°C 62.3°F16.8°C 84% 8.3 mph SSE13.4 kmh SSE 12.1 mph19.5 kmh 29.70 in1005.8 mb 0.00 in0.0 mm 0.00 in0.0 mm 0.01 in0.3 mm
05:00 AM 67.1°F19.5°C 61.1°F16.2°C 81% 5.4 mph SE8.7 kmh SE 14.5 mph23.3 kmh 29.70 in1005.8 mb 0.00 in0.0 mm 0.00 in0.0 mm 0.01 in0.3 mm
05:15 AM 66.9°F19.4°C 61.3°F16.3°C 82% 9.2 mph SSE14.8 kmh SSE 12.1 mph19.5 kmh 29.70 in1005.8 mb 0.00 in0.0 mm 0.00 in0.0 mm 0.01 in0.3 mm
05:30 AM 66.7°F19.3°C 61.1°F16.2°C 82% 6.0 mph SE9.7 kmh SE 8.3 mph13.4 kmh 29.72 in1006.4 mb 0.00 in0.0 mm 0.00 in0.0 mm 0.01 in0.3 mm
05:45 AM 66.7°F19.3°C 61.4°F16.3°C 83% 3.1 mph SSE5.0 kmh SSE 8.3 mph13.4 kmh 29.73 in1006.8 mb 0.00 in0.0 mm 0.00 in0.0 mm 0.01 in0.3 mm
06:00 AM 66.7°F19.3°C 61.4°F16.3°C 83% 4.5 mph S7.2 kmh S 8.3 mph13.4 kmh 29.73 in1006.8 mb 0.00 in0.0 mm 0.00 in0.0 mm 0.01 in0.3 mm
06:15 AM 66.9°F19.4°C 60.9°F16.1°C 81% 3.8 mph SSE6.1 kmh SSE 9.2 mph14.8 kmh 29.73 in1006.8 mb 0.00 in0.0 mm 0.00 in0.0 mm 0.01 in0.3 mm
06:30 AM 66.9°F19.4°C 60.9°F16.1°C 81% 3.8 mph S6.1 kmh S 8.3 mph13.4 kmh 29.73 in1006.8 mb 0.00 in0.0 mm 0.00 in0.0 mm 0.01 in0.3 mm
06:45 AM 66.6°F19.2°C 60.6°F15.9°C 81% 3.8 mph SE6.1 kmh SE 8.3 mph13.4 kmh 29.74 in1007.1 mb 0.00 in0.0 mm 0.00 in0.0 mm 0.01 in0.3 mm
07:00 AM 66.7°F19.3°C 61.4°F16.3°C 83% 3.8 mph SE6.1 kmh SE 9.2 mph14.8 kmh 29.72 in1006.4 mb 0.00 in0.0 mm 0.00 in0.0 mm 0.01 in0.3 mm
07:15 AM 67.1°F19.5°C 61.4°F16.3°C 82% 3.8 mph SE6.1 kmh SE 7.6 mph12.2 kmh 29.74 in1007.1 mb 0.00 in0.0 mm 0.00 in0.0 mm 0.01 in0.3 mm
07:30 AM 67.3°F19.6°C 60.9°F16.1°C 80% 6.9 mph SSE11.1 kmh SSE 8.3 mph13.4 kmh 29.75 in1007.5 mb 0.00 in0.0 mm 0.00 in0.0 mm 0.01 in0.3 mm
07:45 AM 67.6°F19.8°C 61.3°F16.3°C 80% 2.2 mph SE3.5 kmh SE 6.9 mph11.1 kmh 29.74 in1007.1 mb 0.00 in0.0 mm 0.00 in0.0 mm 0.01 in0.3 mm
08:00 AM 67.6°F19.8°C 61.3°F16.3°C 80% 3.8 mph SSE6.1 kmh SSE 7.6 mph12.2 kmh 29.75 in1007.5 mb 0.00 in0.0 mm 0.00 in0.0 mm 0.01 in0.3 mm
08:15 AM 67.8°F19.9°C 61.4°F16.3°C 80% 4.5 mph S7.2 kmh S 6.9 mph11.1 kmh 29.77 in1008.1 mb 0.00 in0.0 mm 0.00 in0.0 mm 0.01 in0.3 mm
08:30 AM 67.8°F19.9°C 61.4°F16.3°C 80% 3.1 mph S5.0 kmh S 9.8 mph15.8 kmh 29.77 in1008.1 mb 0.00 in0.0 mm 0.00 in0.0 mm 0.01 in0.3 mm
08:45 AM 68.4°F20.2°C 61.6°F16.4°C 79% 3.1 mph SSE5.0 kmh SSE 6.9 mph11.1 kmh 29.76 in1007.8 mb 0.00 in0.0 mm 0.00 in0.0 mm 0.01 in0.3 mm
09:00 AM 68.7°F20.4°C 61.2°F16.2°C 77% 5.4 mph S8.7 kmh S 7.6 mph12.2 kmh 29.77 in1008.1 mb 0.00 in0.0 mm 0.00 in0.0 mm 0.01 in0.3 mm
09:15 AM 68.7°F20.4°C 61.2°F16.2°C 77% 3.8 mph S6.1 kmh S 9.8 mph15.8 kmh 29.78 in1008.5 mb 0.00 in0.0 mm 0.00 in0.0 mm 0.01 in0.3 mm
09:30 AM 69.1°F20.6°C 61.2°F16.2°C 76% 6.0 mph S9.7 kmh S 9.2 mph14.8 kmh 29.78 in1008.5 mb 0.00 in0.0 mm 0.00 in0.0 mm 0.01 in0.3 mm
09:45 AM 69.3°F20.7°C 61.8°F16.6°C 77% 5.4 mph S8.7 kmh S 9.8 mph15.8 kmh 29.79 in1008.8 mb 0.00 in0.0 mm 0.00 in0.0 mm 0.01 in0.3 mm
10:00 AM 69.3°F20.7°C 62.5°F16.9°C 79% 6.9 mph S11.1 kmh S 12.1 mph19.5 kmh 29.78 in1008.5 mb 0.00 in0.0 mm 0.00 in0.0 mm 0.01 in0.3 mm
10:15 AM 69.8°F21.0°C 62.7°F17.1°C 78% 6.9 mph S11.1 kmh S 10.7 mph17.2 kmh 29.77 in1008.1 mb 0.00 in0.0 mm 0.00 in0.0 mm 0.01 in0.3 mm
10:30 AM 70.3°F21.3°C 62.4°F16.9°C 76% 6.0 mph SSE9.7 kmh SSE 11.4 mph18.3 kmh 29.78 in1008.5 mb 0.00 in0.0 mm 0.00 in0.0 mm 0.01 in0.3 mm
10:45 AM 70.9°F21.6°C 62.2°F16.8°C 74% 4.5 mph SE7.2 kmh SE 11.4 mph18.3 kmh 29.79 in1008.8 mb 0.00 in0.0 mm 0.00 in0.0 mm 0.01 in0.3 mm
11:00 AM 71.2°F21.8°C 62.6°F17.0°C 74% 9.2 mph SE14.8 kmh SE 13.0 mph20.9 kmh 29.78 in1008.5 mb 0.00 in0.0 mm 0.00 in0.0 mm 0.01 in0.3 mm
11:15 AM 72.1°F22.3°C 63.0°F17.2°C 73% 5.4 mph SE8.7 kmh SE 9.8 mph15.8 kmh 29.78 in1008.5 mb 0.00 in0.0 mm 0.00 in0.0 mm 0.01 in0.3 mm
11:30 AM 72.3°F22.4°C 63.2°F17.3°C 73% 3.8 mph SSE6.1 kmh SSE 9.8 mph15.8 kmh 29.79 in1008.8 mb 0.00 in0.0 mm 0.00 in0.0 mm 0.01 in0.3 mm
11:45 AM 72.5°F22.5°C 63.0°F17.2°C 72% 9.2 mph SSE14.8 kmh SSE 13.6 mph21.9 kmh 29.79 in1008.8 mb 0.00 in0.0 mm 0.00 in0.0 mm 0.01 in0.3 mm
12:00 PM 73.4°F23.0°C 64.3°F17.9°C 73% 7.6 mph SSE12.2 kmh SSE 13.0 mph20.9 kmh 29.78 in1008.5 mb 0.00 in0.0 mm 0.00 in0.0 mm 0.01 in0.3 mm
12:15 PM 74.3°F23.5°C 64.7°F18.2°C 72% 4.5 mph SE7.2 kmh SE 9.2 mph14.8 kmh 29.78 in1008.5 mb 0.00 in0.0 mm 0.00 in0.0 mm 0.01 in0.3 mm
12:30 PM 73.2°F22.9°C 63.7°F17.6°C 72% 7.6 mph SSE12.2 kmh SSE 12.1 mph19.5 kmh 29.77 in1008.1 mb 0.00 in0.0 mm 0.00 in0.0 mm 0.01 in0.3 mm
12:45 PM 74.5°F23.6°C 64.9°F18.3°C 72% 6.9 mph SSE11.1 kmh SSE 12.1 mph19.5 kmh 29.77 in1008.1 mb 0.00 in0.0 mm 0.00 in0.0 mm 0.01 in0.3 mm
01:00 PM 76.8°F24.9°C 65.1°F18.4°C 67% 9.2 mph S14.8 kmh S 14.5 mph23.3 kmh 29.78 in1008.5 mb 0.00 in0.0 mm 0.00 in0.0 mm 0.01 in0.3 mm
01:15 PM 75.7°F24.3°C 65.3°F18.5°C 70% 8.3 mph S13.4 kmh S 11.4 mph18.3 kmh 29.77 in1008.1 mb 0.00 in0.0 mm 0.00 in0.0 mm 0.01 in0.3 mm
01:30 PM 76.3°F24.6°C 65.4°F18.6°C 69% 6.9 mph S11.1 kmh S 12.1 mph19.5 kmh 29.77 in1008.1 mb 0.00 in0.0 mm 0.00 in0.0 mm 0.01 in0.3 mm
01:45 PM 77.7°F25.4°C 65.5°F18.6°C 66% 4.5 mph S7.2 kmh S 12.1 mph19.5 kmh 29.75 in1007.5 mb 0.00 in0.0 mm 0.00 in0.0 mm 0.01 in0.3 mm
02:00 PM 78.3°F25.7°C 66.0°F18.9°C 66% 6.0 mph S9.7 kmh S 10.7 mph17.2 kmh 29.76 in1007.8 mb 0.00 in0.0 mm 0.00 in0.0 mm 0.01 in0.3 mm
02:15 PM 77.9°F25.5°C 66.5°F19.2°C 68% 3.8 mph S6.1 kmh S 11.4 mph18.3 kmh 29.76 in1007.8 mb 0.00 in0.0 mm 0.00 in0.0 mm 0.01 in0.3 mm
02:30 PM 77.4°F25.2°C 66.4°F19.1°C 69% 7.6 mph S12.2 kmh S 10.7 mph17.2 kmh 29.75 in1007.5 mb 0.00 in0.0 mm 0.00 in0.0 mm 0.01 in0.3 mm
02:45 PM 78.1°F25.6°C 67.1°F19.5°C 69% 3.8 mph S6.1 kmh S 11.4 mph18.3 kmh 29.75 in1007.5 mb 0.00 in0.0 mm 0.00 in0.0 mm 0.01 in0.3 mm
03:00 PM 77.7°F25.4°C 65.9°F18.8°C 67% 6.9 mph S11.1 kmh S 10.7 mph17.2 kmh 29.75 in1007.5 mb 0.00 in0.0 mm 0.00 in0.0 mm 0.01 in0.3 mm
03:15 PM 79.2°F26.2°C 66.4°F19.1°C 65% 2.2 mph SW3.5 kmh SW 9.2 mph14.8 kmh 29.75 in1007.5 mb 0.00 in0.0 mm 0.00 in0.0 mm 0.01 in0.3 mm
03:30 PM 78.1°F25.6°C 66.3°F19.1°C 67% 6.9 mph S11.1 kmh S 9.8 mph15.8 kmh 29.75 in1007.5 mb 0.00 in0.0 mm 0.00 in0.0 mm 0.01 in0.3 mm
03:45 PM 79.2°F26.2°C 66.4°F19.1°C 65% 4.5 mph S7.2 kmh S 9.2 mph14.8 kmh 29.74 in1007.1 mb 0.00 in0.0 mm 0.00 in0.0 mm 0.01 in0.3 mm
04:00 PM 79.5°F26.4°C 66.3°F19.1°C 64% 3.1 mph S5.0 kmh S 9.8 mph15.8 kmh 29.74 in1007.1 mb 0.00 in0.0 mm 0.00 in0.0 mm 0.01 in0.3 mm
04:15 PM 78.6°F25.9°C 66.8°F19.3°C 67% 3.8 mph S6.1 kmh S 10.7 mph17.2 kmh 29.73 in1006.8 mb 0.00 in0.0 mm 0.00 in0.0 mm 0.01 in0.3 mm
04:30 PM 78.8°F26.0°C 66.5°F19.2°C 66% 6.0 mph S9.7 kmh S 9.8 mph15.8 kmh 29.72 in1006.4 mb 0.00 in0.0 mm 0.00 in0.0 mm 0.01 in0.3 mm
04:45 PM 82.4°F28.0°C 66.7°F19.3°C 59% 3.1 mph S5.0 kmh S 11.4 mph18.3 kmh 29.72 in1006.4 mb 0.00 in0.0 mm 0.00 in0.0 mm 0.01 in0.3 mm
05:00 PM 80.4°F26.9°C 67.2°F19.6°C 64% 4.5 mph S7.2 kmh S 9.8 mph15.8 kmh 29.71 in1006.1 mb 0.00 in0.0 mm 0.00 in0.0 mm 0.01 in0.3 mm
05:15 PM 80.4°F26.9°C 67.2°F19.6°C 64% 4.5 mph S7.2 kmh S 9.2 mph14.8 kmh 29.70 in1005.8 mb 0.00 in0.0 mm 0.00 in0.0 mm 0.01 in0.3 mm
05:30 PM 79.7°F26.5°C 66.9°F19.4°C 65% 4.5 mph S7.2 kmh S 10.7 mph17.2 kmh 29.70 in1005.8 mb 0.00 in0.0 mm 0.00 in0.0 mm 0.01 in0.3 mm
05:45 PM 78.8°F26.0°C 67.0°F19.4°C 67% 6.9 mph S11.1 kmh S 9.2 mph14.8 kmh 29.68 in1005.1 mb 0.00 in0.0 mm 0.00 in0.0 mm 0.01 in0.3 mm
06:00 PM 80.8°F27.1°C 67.5°F19.7°C 64% 4.5 mph SSW7.2 kmh SSW 9.2 mph14.8 kmh 29.68 in1005.1 mb 0.00 in0.0 mm 0.00 in0.0 mm 0.01 in0.3 mm
06:15 PM 81.9°F27.7°C 67.1°F19.5°C 61% 6.9 mph SSE11.1 kmh SSE 9.8 mph15.8 kmh 29.68 in1005.1 mb 0.00 in0.0 mm 0.00 in0.0 mm 0.01 in0.3 mm
06:30 PM 82.4°F28.0°C 66.7°F19.3°C 59% 5.4 mph SSE8.7 kmh SSE 8.3 mph13.4 kmh 29.68 in1005.1 mb 0.00 in0.0 mm 0.00 in0.0 mm 0.01 in0.3 mm
06:45 PM 81.0°F27.2°C 66.8°F19.3°C 62% 6.0 mph SSE9.7 kmh SSE 10.7 mph17.2 kmh 29.67 in1004.7 mb 0.00 in0.0 mm 0.00 in0.0 mm 0.01 in0.3 mm
07:00 PM 83.3°F28.5°C 67.5°F19.7°C 59% 3.8 mph S6.1 kmh S 8.3 mph13.4 kmh 29.68 in1005.1 mb 0.00 in0.0 mm 0.00 in0.0 mm 0.01 in0.3 mm
07:15 PM 81.5°F27.5°C 66.8°F19.3°C 61% 3.8 mph SSE6.1 kmh SSE 10.7 mph17.2 kmh 29.67 in1004.7 mb 0.00 in0.0 mm 0.00 in0.0 mm 0.01 in0.3 mm
07:30 PM 82.0°F27.8°C 67.3°F19.6°C 61% 4.5 mph S7.2 kmh S 7.6 mph12.2 kmh 29.68 in1005.1 mb 0.00 in0.0 mm 0.00 in0.0 mm 0.01 in0.3 mm
07:45 PM 79.7°F26.5°C 66.9°F19.4°C 65% 1.6 mph S2.6 kmh S 7.6 mph12.2 kmh 29.68 in1005.1 mb 0.00 in0.0 mm 0.00 in0.0 mm 0.01 in0.3 mm
08:00 PM 78.1°F25.6°C 66.7°F19.3°C 68% 2.2 mph S3.5 kmh S 5.4 mph8.7 kmh 29.69 in1005.4 mb 0.00 in0.0 mm 0.00 in0.0 mm 0.01 in0.3 mm
08:15 PM 77.4°F25.2°C 66.9°F19.4°C 70% 3.8 mph SSE6.1 kmh SSE 6.0 mph9.7 kmh 29.68 in1005.1 mb 0.00 in0.0 mm 0.00 in0.0 mm 0.01 in0.3 mm
08:30 PM 76.8°F24.9°C 67.6°F19.8°C 73% 2.2 mph S3.5 kmh S 3.8 mph6.1 kmh 29.69 in1005.4 mb 0.00 in0.0 mm 0.00 in0.0 mm 0.01 in0.3 mm
08:45 PM 76.5°F24.7°C 67.6°F19.8°C 74% 2.2 mph SSW3.5 kmh SSW 4.5 mph7.2 kmh 29.70 in1005.8 mb 0.00 in0.0 mm 0.00 in0.0 mm 0.01 in0.3 mm
09:00 PM 76.1°F24.5°C 67.6°F19.8°C 75% 0.7 mph SW1.1 kmh SW 5.4 mph8.7 kmh 29.70 in1005.8 mb 0.00 in0.0 mm 0.00 in0.0 mm 0.01 in0.3 mm
09:15 PM 75.4°F24.1°C 67.7°F19.8°C 77% 1.6 mph S2.6 kmh S 5.4 mph8.7 kmh 29.70 in1005.8 mb 0.00 in0.0 mm 0.00 in0.0 mm 0.01 in0.3 mm
09:30 PM 75.2°F24.0°C 67.9°F19.9°C 78% 3.1 mph SSE5.0 kmh SSE 4.5 mph7.2 kmh 29.70 in1005.8 mb 0.00 in0.0 mm 0.00 in0.0 mm 0.01 in0.3 mm
09:45 PM 74.7°F23.7°C 68.1°F20.1°C 80% 2.2 mph SSE3.5 kmh SSE 5.4 mph8.7 kmh 29.70 in1005.8 mb 0.00 in0.0 mm 0.00 in0.0 mm 0.01 in0.3 mm
10:00 PM 74.5°F23.6°C 67.9°F19.9°C 80% 1.6 mph S2.6 kmh S 5.4 mph8.7 kmh 29.71 in1006.1 mb 0.00 in0.0 mm 0.00 in0.0 mm 0.01 in0.3 mm
10:15 PM 74.1°F23.4°C 67.2°F19.6°C 79% 1.6 mph SSE2.6 kmh SSE 4.5 mph7.2 kmh 29.72 in1006.4 mb 0.00 in0.0 mm 0.00 in0.0 mm 0.01 in0.3 mm
10:30 PM 73.4°F23.0°C 66.9°F19.4°C 80% 1.6 mph SSW2.6 kmh SSW 3.8 mph6.1 kmh 29.73 in1006.8 mb 0.00 in0.0 mm 0.00 in0.0 mm 0.01 in0.3 mm
10:45 PM 73.4°F23.0°C 66.9°F19.4°C 80% 2.2 mph SSE3.5 kmh SSE 3.8 mph6.1 kmh 29.73 in1006.8 mb 0.00 in0.0 mm 0.00 in0.0 mm 0.01 in0.3 mm
11:00 PM 73.4°F23.0°C 66.5°F19.2°C 79% 0.7 mph SE1.1 kmh SE 3.8 mph6.1 kmh 29.74 in1007.1 mb 0.00 in0.0 mm 0.00 in0.0 mm 0.01 in0.3 mm
11:15 PM 73.0°F22.8°C 66.2°F19.0°C 79% Calm Calm 3.1 mph5.0 kmh 29.74 in1007.1 mb 0.00 in0.0 mm 0.00 in0.0 mm 0.01 in0.3 mm
11:30 PM 72.5°F22.5°C 66.0°F18.9°C 80% Calm Calm 3.1 mph5.0 kmh 29.74 in1007.1 mb 0.00 in0.0 mm 0.00 in0.0 mm 0.01 in0.3 mm
11:45 PM 72.5°F22.5°C 66.4°F19.1°C 81% 0.7 mph SE1.1 kmh SE 2.2 mph3.5 kmh 29.74 in1007.1 mb 0.00 in0.0 mm 0.00 in0.0 mm 0.01 in0.3 mm